createdAt,value
2018-03-19T00:00:18.030Z,-1.70
2018-03-19T00:02:46.330Z,-1.70
2018-03-19T00:05:14.642Z,-1.70
2018-03-19T00:07:43.703Z,-1.70
2018-03-19T00:10:12.775Z,-1.70
2018-03-19T00:12:41.055Z,-1.80
2018-03-19T00:15:09.362Z,-1.80
2018-03-19T00:17:37.808Z,-1.80
2018-03-19T00:20:06.092Z,-1.80
2018-03-19T00:22:34.443Z,-1.80
2018-03-19T00:25:02.894Z,-1.80
2018-03-19T00:27:31.984Z,-1.80
2018-03-19T00:30:01.056Z,-1.90
2018-03-19T00:32:29.332Z,-1.90
2018-03-19T00:34:58.368Z,-1.90
2018-03-19T00:37:26.661Z,-1.90
2018-03-19T00:39:55.783Z,-1.90
2018-03-19T00:42:24.077Z,-1.90
2018-03-19T00:44:53.118Z,-1.90
2018-03-19T00:47:21.448Z,-1.90
2018-03-19T00:49:49.669Z,-1.90
2018-03-19T00:52:18.159Z,-1.90
2018-03-19T00:54:46.585Z,-1.90
2018-03-19T00:57:15.739Z,-1.90
2018-03-19T00:59:44.204Z,-2.00
2018-03-19T01:02:12.823Z,-1.90
2018-03-19T01:04:41.297Z,-1.90
2018-03-19T01:07:09.577Z,-2.00
2018-03-19T01:09:37.843Z,-2.00
2018-03-19T01:12:06.197Z,-2.00
2018-03-19T01:14:34.506Z,-2.00
2018-03-19T01:17:04.275Z,-2.00
2018-03-19T01:19:32.645Z,-2.10
2018-03-19T01:22:00.921Z,-2.00
2018-03-19T01:24:29.201Z,-2.00
2018-03-19T01:26:57.513Z,-2.00
2018-03-19T01:29:25.779Z,-2.00
2018-03-19T01:31:54.077Z,-2.00
2018-03-19T01:34:22.398Z,-2.00
2018-03-19T01:36:50.897Z,-2.00
2018-03-19T01:39:19.165Z,-2.00
2018-03-19T01:41:47.446Z,-2.10
2018-03-19T01:44:15.727Z,-2.00
2018-03-19T01:46:44.234Z,-2.10
2018-03-19T01:49:12.487Z,-2.10
2018-03-19T01:51:40.799Z,-2.10
2018-03-19T01:54:09.855Z,-2.10
2018-03-19T01:56:38.175Z,-2.20
2018-03-19T01:59:07.191Z,-2.10
2018-03-19T02:01:35.495Z,-2.20
2018-03-19T02:04:03.784Z,-2.10
2018-03-19T02:06:32.137Z,-2.20
2018-03-19T02:09:00.436Z,-2.20
2018-03-19T02:11:28.707Z,-2.30
2018-03-19T02:13:57.001Z,-2.20
2018-03-19T02:16:25.275Z,-2.20
2018-03-19T02:18:53.591Z,-2.20
2018-03-19T02:21:21.862Z,-2.30
2018-03-19T02:23:50.288Z,-2.30
2018-03-19T02:26:18.550Z,-2.30
2018-03-19T02:28:46.830Z,-2.30
2018-03-19T02:31:15.235Z,-2.30
2018-03-19T02:33:43.531Z,-2.30
2018-03-19T02:36:11.833Z,-2.30
2018-03-19T02:38:40.160Z,-2.30
2018-03-19T02:41:08.438Z,-2.30
2018-03-19T02:43:37.484Z,-2.40
2018-03-19T02:46:05.850Z,-2.40
2018-03-19T02:48:34.144Z,-2.40
2018-03-19T02:51:02.413Z,-2.40
2018-03-19T02:53:30.721Z,-2.40
2018-03-19T02:55:58.991Z,-2.40
2018-03-19T02:58:27.318Z,-2.40
2018-03-19T03:00:55.678Z,-2.40
2018-03-19T03:03:24.728Z,-2.50
2018-03-19T03:05:53.027Z,-2.50
2018-03-19T03:08:21.302Z,-2.50
2018-03-19T03:10:49.583Z,-2.50
2018-03-19T03:13:18.611Z,-2.50
2018-03-19T03:15:46.917Z,-2.60
2018-03-19T03:18:15.275Z,-2.50
2018-03-19T03:20:43.522Z,-2.60
2018-03-19T03:23:11.788Z,-2.60
2018-03-19T03:25:40.851Z,-2.60
2018-03-19T03:28:09.127Z,-2.60
2018-03-19T03:30:37.456Z,-2.60
2018-03-19T03:33:06.614Z,-2.60
2018-03-19T03:35:34.895Z,-2.70
2018-03-19T03:38:03.946Z,-2.70
2018-03-19T03:40:32.335Z,-2.70
2018-03-19T03:43:00.610Z,-2.70
2018-03-19T03:45:28.895Z,-2.70
2018-03-19T03:47:58.685Z,-2.80
2018-03-19T03:50:27.006Z,-2.80
2018-03-19T03:52:56.151Z,-2.70
2018-03-19T03:55:24.443Z,-2.80
2018-03-19T03:57:52.743Z,-2.80
2018-03-19T04:00:21.798Z,-2.80
2018-03-19T04:02:50.081Z,-2.80
2018-03-19T04:05:18.361Z,-2.80
2018-03-19T04:07:46.673Z,-2.80
2018-03-19T04:10:15.083Z,-2.80
2018-03-19T04:12:43.485Z,-2.90
2018-03-19T04:15:11.764Z,-2.90
2018-03-19T04:17:40.044Z,-2.90
2018-03-19T04:20:08.376Z,-2.90
2018-03-19T04:22:36.660Z,-2.90
2018-03-19T04:25:04.935Z,-3.00
2018-03-19T04:27:33.201Z,-3.00
2018-03-19T04:30:01.628Z,-3.00
2018-03-19T04:32:31.408Z,-3.10
2018-03-19T04:34:59.831Z,-3.10
2018-03-19T04:37:29.156Z,-3.10
2018-03-19T04:39:57.450Z,-3.20
2018-03-19T04:42:25.765Z,-3.10
2018-03-19T04:44:54.038Z,-3.10
2018-03-19T04:47:22.350Z,-3.20
2018-03-19T04:49:50.738Z,-3.20
2018-03-19T04:52:19.011Z,-3.20
2018-03-19T04:54:47.551Z,-3.20
2018-03-19T04:57:15.903Z,-3.30
2018-03-19T04:59:44.186Z,-3.30
2018-03-19T05:02:12.479Z,-3.30
2018-03-19T05:04:40.759Z,-3.30
2018-03-19T05:07:09.057Z,-3.40
2018-03-19T05:09:38.154Z,-3.40
2018-03-19T05:12:06.519Z,-3.40
2018-03-19T05:14:36.285Z,-3.50
2018-03-19T05:17:04.577Z,-3.50
2018-03-19T05:19:32.928Z,-3.40
2018-03-19T05:22:01.228Z,-3.50
2018-03-19T05:24:29.535Z,-3.50
2018-03-19T05:26:58.606Z,-3.50
2018-03-19T05:29:26.873Z,-3.60
2018-03-19T05:31:55.211Z,-3.50
2018-03-19T05:34:23.497Z,-3.50
2018-03-19T05:36:51.849Z,-3.50
2018-03-19T05:39:20.123Z,-3.50
2018-03-19T05:41:48.424Z,-3.50
2018-03-19T05:44:16.724Z,-3.50
2018-03-19T05:46:45.041Z,-3.50
2018-03-19T05:49:14.072Z,-3.60
2018-03-19T05:51:42.470Z,-3.60
2018-03-19T05:54:10.777Z,-3.60
2018-03-19T05:56:39.891Z,-3.50
2018-03-19T05:59:08.135Z,-3.60
2018-03-19T06:01:36.404Z,-3.60
2018-03-19T06:04:04.830Z,-3.50
2018-03-19T06:06:33.112Z,-3.50
2018-03-19T06:09:01.415Z,-3.50
2018-03-19T06:11:29.818Z,-3.50
2018-03-19T06:13:58.083Z,-3.50
2018-03-19T06:16:26.351Z,-3.50
2018-03-19T06:18:54.751Z,-3.50
2018-03-19T06:21:23.793Z,-3.40
2018-03-19T06:23:52.237Z,-3.50
2018-03-19T06:26:21.303Z,-3.40
2018-03-19T06:28:49.620Z,-3.40
2018-03-19T06:31:17.914Z,-3.40
2018-03-19T06:33:46.268Z,-3.30
2018-03-19T06:36:14.715Z,-3.30
2018-03-19T06:38:42.976Z,-3.30
2018-03-19T06:41:11.267Z,-3.30
2018-03-19T06:43:40.325Z,-3.20
2018-03-19T06:46:08.643Z,-3.30
2018-03-19T06:48:37.690Z,-3.10
2018-03-19T06:51:06.147Z,-3.20
2018-03-19T06:53:34.417Z,-3.10
2018-03-19T06:56:02.707Z,-3.00
2018-03-19T06:58:30.980Z,-3.00
2018-03-19T07:00:59.432Z,-3.00
2018-03-19T07:03:27.686Z,-2.90
2018-03-19T07:05:55.986Z,-2.90
2018-03-19T07:08:24.285Z,-2.80
2018-03-19T07:10:52.583Z,-2.80
2018-03-19T07:13:20.920Z,-2.80
2018-03-19T07:15:49.213Z,-2.80
2018-03-19T07:18:17.542Z,-2.70
2018-03-19T07:20:45.857Z,-2.70
2018-03-19T07:23:14.129Z,-2.60
2018-03-19T07:25:42.404Z,-2.50
2018-03-19T07:28:10.701Z,-2.50
2018-03-19T07:30:38.976Z,-2.40
2018-03-19T07:33:07.351Z,-2.40
2018-03-19T07:35:35.621Z,-2.30
2018-03-19T07:38:03.978Z,-2.20
2018-03-19T07:40:32.264Z,-2.10
2018-03-19T07:43:00.562Z,-2.00
2018-03-19T07:45:28.848Z,-2.00
2018-03-19T07:47:57.354Z,-1.90
2018-03-19T07:50:26.414Z,-1.80
2018-03-19T07:52:54.773Z,-1.90
2018-03-19T07:55:23.050Z,-1.80
2018-03-19T07:57:51.327Z,-1.80
2018-03-19T08:00:19.808Z,-1.60
2018-03-19T08:02:48.078Z,-1.70
2018-03-19T08:05:16.458Z,-1.50
2018-03-19T08:07:44.744Z,-1.50
2018-03-19T08:10:13.118Z,-1.40
2018-03-19T08:12:41.443Z,-1.40
2018-03-19T08:15:10.500Z,-1.40
2018-03-19T08:17:38.787Z,-1.40
2018-03-19T08:20:07.086Z,-1.30
2018-03-19T08:22:36.129Z,-1.30
2018-03-19T08:25:04.428Z,-1.30
2018-03-19T08:27:32.727Z,-1.20
2018-03-19T08:30:01.781Z,-1.10
2018-03-19T08:32:30.179Z,-1.10
2018-03-19T08:34:58.467Z,-1.00
2018-03-19T08:37:26.905Z,-0.90
2018-03-19T08:39:55.402Z,-0.90
2018-03-19T08:42:23.719Z,-0.80
2018-03-19T08:44:52.752Z,-0.90
2018-03-19T08:47:21.129Z,-1.00
2018-03-19T08:49:49.461Z,-1.10
2018-03-19T08:52:18.654Z,-1.10
2018-03-19T08:54:47.884Z,-1.00
2018-03-19T09:02:59.823Z,-0.80
2018-03-19T09:05:28.108Z,-0.70
2018-03-19T09:07:56.380Z,-0.60
2018-03-19T09:10:24.658Z,-0.50
2018-03-19T09:12:52.931Z,-0.40
2018-03-19T09:15:21.256Z,-0.30
2018-03-19T09:17:50.273Z,-0.30
2018-03-19T09:20:18.542Z,-0.30
2018-03-19T09:22:46.862Z,-0.30
2018-03-19T09:25:15.174Z,-0.30
2018-03-19T09:27:43.542Z,-0.30
2018-03-19T09:30:12.572Z,-0.20
2018-03-19T09:32:40.855Z,-0.30
2018-03-19T09:35:09.215Z,-0.30
2018-03-19T09:37:37.394Z,-0.40
2018-03-19T09:40:05.943Z,-0.50
2018-03-19T09:42:34.975Z,-0.30
2018-03-19T09:45:03.229Z,-0.30
2018-03-19T09:47:31.494Z,-0.30
2018-03-19T09:50:00.671Z,0.00
2018-03-19T09:52:30.461Z,-0.10
2018-03-19T09:54:58.710Z,-0.10
2018-03-19T09:57:26.986Z,0.00
2018-03-19T09:59:55.986Z,0.00
2018-03-19T10:02:24.220Z,0.00
2018-03-19T10:04:52.612Z,0.00
2018-03-19T10:07:20.895Z,0.10
2018-03-19T10:09:50.678Z,0.20
2018-03-19T10:12:19.744Z,0.20
2018-03-19T10:14:48.004Z,0.20
2018-03-19T10:17:16.310Z,0.30
2018-03-19T10:19:44.612Z,0.50
2018-03-19T10:22:12.867Z,0.50
2018-03-19T10:24:41.921Z,0.70
2018-03-19T10:27:10.167Z,0.60
2018-03-19T10:29:38.499Z,0.80
2018-03-19T10:32:06.824Z,0.80
2018-03-19T10:34:39.349Z,0.90
2018-03-19T10:37:08.436Z,0.90
2018-03-19T10:39:36.687Z,0.80
2018-03-19T10:42:04.949Z,0.90
2018-03-19T10:44:33.201Z,0.90
2018-03-19T10:47:01.440Z,1.00
2018-03-19T10:49:29.686Z,1.10
2018-03-19T10:51:57.955Z,1.30
2018-03-19T10:54:26.235Z,1.30
2018-03-19T10:56:54.535Z,1.40
2018-03-19T10:59:22.983Z,1.40
2018-03-19T11:01:51.258Z,1.50
2018-03-19T11:04:19.499Z,1.30
2018-03-19T11:06:47.763Z,1.40
2018-03-19T11:09:16.763Z,1.40
2018-03-19T11:11:45.189Z,1.30
2018-03-19T11:14:13.435Z,1.50
2018-03-19T11:16:41.690Z,1.50
2018-03-19T11:19:09.980Z,1.40
2018-03-19T11:21:38.999Z,1.80
2018-03-19T11:24:07.291Z,1.70
2018-03-19T11:26:35.574Z,1.60
2018-03-19T11:29:03.828Z,1.60
2018-03-19T11:31:32.114Z,1.80
2018-03-19T11:34:00.386Z,1.70
2018-03-19T11:36:28.654Z,1.70
2018-03-19T11:38:56.916Z,1.90
2018-03-19T11:41:25.227Z,2.00
2018-03-19T11:43:53.451Z,1.80
2018-03-19T11:46:21.759Z,1.90
2018-03-19T11:48:49.999Z,1.90
2018-03-19T11:51:18.255Z,2.00
2018-03-19T11:53:46.508Z,2.10
2018-03-19T11:56:15.535Z,2.10
2018-03-19T11:58:43.799Z,2.00
2018-03-19T12:01:12.148Z,2.20
2018-03-19T12:03:41.167Z,2.40
2018-03-19T12:06:09.528Z,2.30
2018-03-19T12:08:37.794Z,2.40
2018-03-19T12:11:06.012Z,2.40
2018-03-19T12:13:34.276Z,2.30
2018-03-19T12:16:02.728Z,2.50
2018-03-19T12:18:31.859Z,2.60
2018-03-19T12:21:00.209Z,2.50
2018-03-19T12:23:29.376Z,2.80
2018-03-19T12:25:57.625Z,2.70
2018-03-19T12:28:25.887Z,2.70
2018-03-19T12:30:54.343Z,2.60
2018-03-19T12:33:22.642Z,2.70
2018-03-19T12:35:50.925Z,2.80
2018-03-19T12:38:19.284Z,2.80
2018-03-19T12:40:47.523Z,2.90
2018-03-19T12:43:16.657Z,2.90
2018-03-19T12:45:44.892Z,2.80
2018-03-19T12:48:13.194Z,3.00
2018-03-19T12:50:41.479Z,3.00
2018-03-19T12:53:09.815Z,3.00
2018-03-19T12:55:39.033Z,3.10
2018-03-19T12:58:07.288Z,3.00
2018-03-19T13:00:36.415Z,3.20
2018-03-19T13:03:05.440Z,3.20
2018-03-19T13:05:33.683Z,3.10
2018-03-19T13:08:02.026Z,3.30
2018-03-19T13:10:30.337Z,3.40
2018-03-19T13:12:58.899Z,3.40
2018-03-19T13:15:28.770Z,3.40
2018-03-19T13:17:57.955Z,3.30
2018-03-19T13:20:26.204Z,3.30
2018-03-19T13:22:54.487Z,3.50
2018-03-19T13:25:22.771Z,3.50
2018-03-19T13:27:51.150Z,3.70
2018-03-19T13:30:19.508Z,3.80
2018-03-19T13:32:47.885Z,3.70
2018-03-19T13:35:17.143Z,3.70
2018-03-19T13:37:45.390Z,3.60
2018-03-19T13:40:14.609Z,3.70
2018-03-19T13:42:42.864Z,3.80
2018-03-19T13:45:11.134Z,3.80
2018-03-19T13:47:39.421Z,3.80
2018-03-19T13:50:07.765Z,3.60
2018-03-19T13:52:36.158Z,3.80
2018-03-19T13:55:04.420Z,3.90
2018-03-19T13:57:32.680Z,3.90
2018-03-19T14:00:00.970Z,3.80
2018-03-19T14:02:29.232Z,3.90
2018-03-19T14:04:57.618Z,3.70
2018-03-19T14:07:25.984Z,3.80
2018-03-19T14:09:54.232Z,3.90
2018-03-19T14:12:23.264Z,4.00
2018-03-19T14:14:51.552Z,4.00
2018-03-19T14:17:19.855Z,4.10
2018-03-19T14:19:49.007Z,4.10
2018-03-19T14:22:17.977Z,4.20
2018-03-19T14:24:46.451Z,4.30
2018-03-19T14:27:16.275Z,4.50
2018-03-19T14:29:44.507Z,4.40
2018-03-19T14:32:12.772Z,4.50
2018-03-19T14:34:41.016Z,4.50
2018-03-19T14:37:09.412Z,4.40
2018-03-19T14:39:37.671Z,4.30
2018-03-19T14:42:05.944Z,4.20
2018-03-19T14:44:34.243Z,4.20
2018-03-19T14:47:02.602Z,4.20
2018-03-19T14:49:30.864Z,4.20
2018-03-19T14:51:59.132Z,4.30
2018-03-19T14:54:27.390Z,4.20
2018-03-19T14:56:56.406Z,4.30
2018-03-19T14:59:24.803Z,4.30
2018-03-19T15:01:53.011Z,4.40
2018-03-19T15:04:22.062Z,4.30
2018-03-19T15:06:50.368Z,4.20
2018-03-19T15:09:19.507Z,4.20
2018-03-19T15:11:47.760Z,4.10
2018-03-19T15:14:16.846Z,4.30
2018-03-19T15:16:45.332Z,4.30
2018-03-19T15:19:14.364Z,4.40
2018-03-19T15:21:42.614Z,4.30
2018-03-19T15:24:11.664Z,4.50
2018-03-19T15:26:40.101Z,4.40
2018-03-19T15:29:08.362Z,4.50
2018-03-19T15:31:36.656Z,4.40
2018-03-19T15:34:05.644Z,4.30
2018-03-19T15:36:33.941Z,4.30
2018-03-19T15:39:02.267Z,4.30
2018-03-19T15:41:31.287Z,4.30
2018-03-19T15:43:59.584Z,4.30
2018-03-19T15:46:28.555Z,4.30
2018-03-19T15:48:56.800Z,4.30
2018-03-19T15:51:25.824Z,4.20
2018-03-19T15:53:54.071Z,4.10
2018-03-19T15:56:23.108Z,4.20
2018-03-19T15:58:51.461Z,4.10
2018-03-19T16:01:19.735Z,4.10
2018-03-19T16:03:47.971Z,4.00
2018-03-19T16:06:16.227Z,3.90
2018-03-19T16:08:44.495Z,3.90
2018-03-19T16:11:12.801Z,3.90
2018-03-19T16:13:41.048Z,3.90
2018-03-19T16:16:09.317Z,3.80
2018-03-19T16:18:37.590Z,3.70
2018-03-19T16:21:05.823Z,3.70
2018-03-19T16:23:34.844Z,3.60
2018-03-19T16:26:03.195Z,3.60
2018-03-19T16:28:31.446Z,3.60
2018-03-19T16:31:00.464Z,3.60
2018-03-19T16:33:28.724Z,3.50
2018-03-19T16:35:56.965Z,3.50
2018-03-19T16:38:25.355Z,3.50
2018-03-19T16:40:53.622Z,3.40
2018-03-19T16:43:22.052Z,3.30
2018-03-19T16:45:50.294Z,3.30
2018-03-19T16:48:19.333Z,3.10
2018-03-19T16:50:47.617Z,3.10
2018-03-19T16:53:15.857Z,3.10
2018-03-19T16:55:44.127Z,3.10
2018-03-19T16:58:12.517Z,3.00
2018-03-19T17:00:40.772Z,3.00
2018-03-19T17:03:09.808Z,2.90
2018-03-19T17:05:38.055Z,2.90
2018-03-19T17:08:06.443Z,2.90
2018-03-19T17:10:34.717Z,2.80
2018-03-19T17:13:02.963Z,2.80
2018-03-19T17:15:31.235Z,2.80
2018-03-19T17:18:00.236Z,2.60
2018-03-19T17:20:28.511Z,2.60
2018-03-19T17:22:57.572Z,2.50
2018-03-19T17:25:25.877Z,2.50
2018-03-19T17:27:54.892Z,2.40
2018-03-19T17:30:23.202Z,2.40
2018-03-19T17:32:51.471Z,2.40
2018-03-19T17:35:19.731Z,2.40
2018-03-19T17:37:48.122Z,2.30
2018-03-19T17:40:16.480Z,2.30
2018-03-19T17:42:44.713Z,2.20
2018-03-19T17:45:13.756Z,2.10
2018-03-19T17:47:42.026Z,2.10
2018-03-19T17:50:10.287Z,2.10
2018-03-19T17:52:38.576Z,2.00
2018-03-19T17:55:08.500Z,1.90
2018-03-19T17:57:36.767Z,1.90
2018-03-19T18:00:05.074Z,1.90
2018-03-19T18:02:33.333Z,1.80
2018-03-19T18:05:01.580Z,1.90
2018-03-19T18:07:29.851Z,1.80
2018-03-19T18:09:58.160Z,1.80
2018-03-19T18:12:26.654Z,1.80
2018-03-19T18:14:54.879Z,1.80
2018-03-19T18:17:23.113Z,1.70
2018-03-19T18:19:52.131Z,1.70
2018-03-19T18:22:20.386Z,1.60
2018-03-19T18:24:49.420Z,1.60
2018-03-19T18:27:17.708Z,1.60
2018-03-19T18:29:45.983Z,1.60
2018-03-19T18:32:14.216Z,1.60
2018-03-19T18:34:43.261Z,1.60
2018-03-19T18:37:11.524Z,1.50
2018-03-19T18:39:39.785Z,1.50
2018-03-19T18:42:08.028Z,1.50
2018-03-19T18:44:37.043Z,1.40
2018-03-19T18:47:05.373Z,1.40
2018-03-19T18:49:33.576Z,1.40
2018-03-19T18:52:02.600Z,1.30
2018-03-19T18:54:30.997Z,1.30
2018-03-19T18:56:59.446Z,1.30
2018-03-19T18:59:27.709Z,1.30
2018-03-19T19:01:56.032Z,1.30
2018-03-19T19:04:24.335Z,1.30
2018-03-19T19:06:52.613Z,1.20
2018-03-19T19:09:21.648Z,1.20
2018-03-19T19:11:50.059Z,1.20
2018-03-19T19:14:18.301Z,1.20
2018-03-19T19:16:46.601Z,1.20
2018-03-19T19:19:14.895Z,1.20
2018-03-19T19:21:43.156Z,1.20
2018-03-19T19:24:11.484Z,1.10
2018-03-19T19:26:39.787Z,1.10
2018-03-19T19:29:08.057Z,1.10
2018-03-19T19:31:36.473Z,1.10
2018-03-19T19:34:04.751Z,1.10
2018-03-19T19:36:33.069Z,1.10
2018-03-19T19:39:01.312Z,1.00
2018-03-19T19:41:30.361Z,1.00
2018-03-19T19:43:59.422Z,1.00
2018-03-19T19:46:27.692Z,0.90
2018-03-19T19:48:56.058Z,1.00
2018-03-19T19:51:25.085Z,1.00
2018-03-19T19:53:53.354Z,0.90
2018-03-19T19:56:21.725Z,0.90
2018-03-19T19:58:50.175Z,0.90
2018-03-19T20:01:19.187Z,0.90
2018-03-19T20:03:47.435Z,0.80
2018-03-19T20:06:15.867Z,0.80
2018-03-19T20:08:44.147Z,0.80
2018-03-19T20:11:12.428Z,0.70
2018-03-19T20:13:40.778Z,0.70
2018-03-19T20:16:09.038Z,0.70
2018-03-19T20:18:37.350Z,0.70
2018-03-19T20:21:05.610Z,0.60
2018-03-19T20:23:33.855Z,0.60
2018-03-19T20:26:02.161Z,0.60
2018-03-19T20:28:30.424Z,0.50
2018-03-19T20:30:58.675Z,0.50
2018-03-19T20:33:27.791Z,0.50
2018-03-19T20:35:56.060Z,0.40
2018-03-19T20:38:24.705Z,0.40
2018-03-19T20:40:52.975Z,0.40
2018-03-19T20:43:21.247Z,0.40
2018-03-19T20:45:49.542Z,0.30
2018-03-19T20:48:18.570Z,0.30
2018-03-19T20:50:46.864Z,0.20
2018-03-19T20:53:15.109Z,0.30
2018-03-19T20:55:43.370Z,0.20
2018-03-19T20:58:11.643Z,0.20
2018-03-19T21:00:40.798Z,0.10
2018-03-19T21:03:09.908Z,0.00
2018-03-19T21:05:38.223Z,0.10
2018-03-19T21:08:06.475Z,0.10
2018-03-19T21:10:35.526Z,0.00
2018-03-19T21:13:03.794Z,-0.10
2018-03-19T21:15:32.041Z,0.00
2018-03-19T21:18:00.367Z,-0.10
2018-03-19T21:20:28.584Z,-0.10
2018-03-19T21:22:56.933Z,-0.10
2018-03-19T21:25:25.123Z,-0.20
2018-03-19T21:27:53.452Z,-0.20
2018-03-19T21:30:21.677Z,-0.20
2018-03-19T21:32:50.714Z,-0.20
2018-03-19T21:35:18.984Z,-0.30
2018-03-19T21:37:47.376Z,-0.30
2018-03-19T21:40:15.657Z,-0.30
2018-03-19T21:42:43.940Z,-0.30
2018-03-19T21:45:12.190Z,-0.40
2018-03-19T21:47:40.483Z,-0.50
2018-03-19T21:50:08.763Z,-0.50
2018-03-19T21:52:37.065Z,-0.60
2018-03-19T21:55:05.434Z,-0.60
2018-03-19T21:57:34.637Z,-0.60
2018-03-19T22:00:03.662Z,-0.70
2018-03-19T22:02:31.930Z,-0.80
2018-03-19T22:05:00.194Z,-0.70
2018-03-19T22:07:28.475Z,-0.70
2018-03-19T22:09:56.813Z,-0.80
2018-03-19T22:12:25.084Z,-0.80
2018-03-19T22:14:53.351Z,-0.90
2018-03-19T22:17:21.602Z,-0.90
2018-03-19T22:19:49.880Z,-0.90
2018-03-19T22:22:18.134Z,-1.00
2018-03-19T22:24:46.420Z,-1.00
2018-03-19T22:27:14.676Z,-1.00
2018-03-19T22:29:43.042Z,-1.10
2018-03-19T22:32:12.039Z,-1.10
2018-03-19T22:34:40.308Z,-1.20
2018-03-19T22:37:08.591Z,-1.20
2018-03-19T22:39:36.843Z,-1.20
2018-03-19T22:42:05.883Z,-1.20
2018-03-19T22:44:34.170Z,-1.30
2018-03-19T22:47:02.504Z,-1.20
2018-03-19T22:49:31.620Z,-1.20
2018-03-19T22:51:59.896Z,-1.30
2018-03-19T22:54:28.177Z,-1.30
2018-03-19T22:56:56.438Z,-1.30
2018-03-19T22:59:24.761Z,-1.30
2018-03-19T23:01:53.031Z,-1.30
2018-03-19T23:04:33.175Z,-1.30
2018-03-19T23:07:01.448Z,-1.30
2018-03-19T23:09:29.719Z,-1.30
2018-03-19T23:11:57.976Z,-1.30
2018-03-19T23:14:26.234Z,-1.30
2018-03-19T23:16:54.532Z,-1.40
2018-03-19T23:19:22.903Z,-1.30
2018-03-19T23:21:51.183Z,-1.40
2018-03-19T23:24:19.466Z,-1.40
2018-03-19T23:26:47.745Z,-1.40
2018-03-19T23:29:15.998Z,-1.50
2018-03-19T23:31:44.432Z,-1.50
2018-03-19T23:34:12.682Z,-1.50
2018-03-19T23:36:40.927Z,-1.50
2018-03-19T23:39:09.179Z,-1.50
2018-03-19T23:41:37.447Z,-1.50
2018-03-19T23:44:05.759Z,-1.50
2018-03-19T23:46:34.036Z,-1.60
2018-03-19T23:49:02.327Z,-1.60
2018-03-19T23:51:30.559Z,-1.60
2018-03-19T23:53:58.815Z,-1.60
2018-03-19T23:56:27.828Z,-1.70
2018-03-19T23:58:56.103Z,-1.70
